sensor_id;sensor_type;location;lat;lon;timestamp;P1;durP1;ratioP1;P2;durP2;ratioP2
15968;SDS011;8085;53.472;9.794;2024-01-25T00:04:08;36.75;;;3.75;;
15968;SDS011;8085;53.472;9.794;2024-01-25T00:06:36;26.15;;;3.67;;
15968;SDS011;8085;53.472;9.794;2024-01-25T00:09:05;30.50;;;3.08;;
15968;SDS011;8085;53.472;9.794;2024-01-25T00:11:35;28.20;;;3.10;;
15968;SDS011;8085;53.472;9.794;2024-01-25T00:14:05;27.60;;;3.67;;
15968;SDS011;8085;53.472;9.794;2024-01-25T00:16:32;24.73;;;3.67;;
15968;SDS011;8085;53.472;9.794;2024-01-25T00:18:59;29.55;;;3.42;;
15968;SDS011;8085;53.472;9.794;2024-01-25T00:21:28;31.00;;;3.55;;
15968;SDS011;8085;53.472;9.794;2024-01-25T00:23:55;28.63;;;3.50;;
15968;SDS011;8085;53.472;9.794;2024-01-25T00:26:22;33.55;;;4.18;;
15968;SDS011;8085;53.472;9.794;2024-01-25T00:28:50;25.15;;;2.83;;
15968;SDS011;8085;53.472;9.794;2024-01-25T00:31:20;27.52;;;3.22;;
15968;SDS011;8085;53.472;9.794;2024-01-25T00:33:47;39.75;;;3.15;;
15968;SDS011;8085;53.472;9.794;2024-01-25T00:36:15;22.65;;;2.67;;
15968;SDS011;8085;53.472;9.794;2024-01-25T00:38:46;39.78;;;3.65;;
15968;SDS011;8085;53.472;9.794;2024-01-25T00:41:14;31.45;;;3.40;;
15968;SDS011;8085;53.472;9.794;2024-01-25T00:43:45;32.65;;;3.22;;
15968;SDS011;8085;53.472;9.794;2024-01-25T00:46:15;27.88;;;3.10;;
15968;SDS011;8085;53.472;9.794;2024-01-25T00:48:44;25.80;;;3.50;;
15968;SDS011;8085;53.472;9.794;2024-01-25T00:51:15;30.40;;;3.00;;
15968;SDS011;8085;53.472;9.794;2024-01-25T01:01:10;31.27;;;4.65;;
15968;SDS011;8085;53.472;9.794;2024-01-25T01:03:53;27.52;;;3.63;;
15968;SDS011;8085;53.472;9.794;2024-01-25T01:07:01;22.80;;;3.10;;
15968;SDS011;8085;53.472;9.794;2024-01-25T01:09:43;26.52;;;3.95;;
15968;SDS011;8085;53.472;9.794;2024-01-25T01:12:12;21.85;;;3.00;;
15968;SDS011;8085;53.472;9.794;2024-01-25T01:15:04;29.25;;;2.67;;
15968;SDS011;8085;53.472;9.794;2024-01-25T01:17:34;27.27;;;3.47;;
15968;SDS011;8085;53.472;9.794;2024-01-25T01:20:13;24.08;;;3.60;;
15968;SDS011;8085;53.472;9.794;2024-01-25T01:22:45;25.95;;;2.95;;
15968;SDS011;8085;53.472;9.794;2024-01-25T01:25:31;30.60;;;3.67;;
15968;SDS011;8085;53.472;9.794;2024-01-25T01:28:24;32.05;;;3.92;;
15968;SDS011;8085;53.472;9.794;2024-01-25T01:30:54;28.85;;;3.22;;
15968;SDS011;8085;53.472;9.794;2024-01-25T01:33:23;28.95;;;3.72;;
15968;SDS011;8085;53.472;9.794;2024-01-25T01:35:50;35.35;;;4.40;;
15968;SDS011;8085;53.472;9.794;2024-01-25T01:38:20;28.20;;;2.88;;
15968;SDS011;8085;53.472;9.794;2024-01-25T01:40:48;33.42;;;3.55;;
15968;SDS011;8085;53.472;9.794;2024-01-25T01:43:18;25.73;;;2.95;;
15968;SDS011;8085;53.472;9.794;2024-01-25T01:45:49;32.95;;;3.20;;
15968;SDS011;8085;53.472;9.794;2024-01-25T01:48:16;27.05;;;3.33;;
15968;SDS011;8085;53.472;9.794;2024-01-25T01:50:47;34.35;;;3.53;;
15968;SDS011;8085;53.472;9.794;2024-01-25T01:53:14;23.77;;;3.70;;
15968;SDS011;8085;53.472;9.794;2024-01-25T01:55:43;22.05;;;3.17;;
15968;SDS011;8085;53.472;9.794;2024-01-25T01:58:10;26.48;;;3.22;;
15968;SDS011;8085;53.472;9.794;2024-01-25T02:00:37;30.60;;;3.53;;
15968;SDS011;8085;53.472;9.794;2024-01-25T02:03:05;26.88;;;3.22;;
15968;SDS011;8085;53.472;9.794;2024-01-25T02:05:33;29.92;;;3.38;;
15968;SDS011;8085;53.472;9.794;2024-01-25T02:08:01;28.05;;;3.42;;
15968;SDS011;8085;53.472;9.794;2024-01-25T02:10:29;29.80;;;3.28;;
15968;SDS011;8085;53.472;9.794;2024-01-25T02:12:56;30.88;;;3.47;;
15968;SDS011;8085;53.472;9.794;2024-01-25T02:15:22;30.55;;;3.55;;
15968;SDS011;8085;53.472;9.794;2024-01-25T02:17:49;27.92;;;3.60;;
15968;SDS011;8085;53.472;9.794;2024-01-25T02:20:17;34.88;;;3.80;;
15968;SDS011;8085;53.472;9.794;2024-01-25T02:22:46;27.52;;;3.10;;
15968;SDS011;8085;53.472;9.794;2024-01-25T02:25:12;28.58;;;3.15;;
15968;SDS011;8085;53.472;9.794;2024-01-25T02:27:39;28.00;;;3.28;;
15968;SDS011;8085;53.472;9.794;2024-01-25T02:30:07;23.38;;;2.72;;
15968;SDS011;8085;53.472;9.794;2024-01-25T02:32:34;24.50;;;3.03;;
15968;SDS011;8085;53.472;9.794;2024-01-25T02:35:01;39.00;;;3.50;;
15968;SDS011;8085;53.472;9.794;2024-01-25T02:37:28;27.38;;;3.00;;
15968;SDS011;8085;53.472;9.794;2024-01-25T02:39:56;25.77;;;2.65;;
15968;SDS011;8085;53.472;9.794;2024-01-25T02:42:23;33.22;;;3.22;;
15968;SDS011;8085;53.472;9.794;2024-01-25T02:44:50;26.67;;;2.97;;
15968;SDS011;8085;53.472;9.794;2024-01-25T02:47:17;31.45;;;3.15;;
15968;SDS011;8085;53.472;9.794;2024-01-25T02:49:44;31.02;;;3.20;;
15968;SDS011;8085;53.472;9.794;2024-01-25T02:52:11;27.30;;;3.83;;
15968;SDS011;8085;53.472;9.794;2024-01-25T02:54:38;28.30;;;3.20;;
15968;SDS011;8085;53.472;9.794;2024-01-25T02:57:06;24.95;;;3.65;;
15968;SDS011;8085;53.472;9.794;2024-01-25T02:59:33;26.77;;;3.53;;
15968;SDS011;8085;53.472;9.794;2024-01-25T03:02:00;28.77;;;3.47;;
15968;SDS011;8085;53.472;9.794;2024-01-25T03:04:26;35.50;;;3.72;;
15968;SDS011;8085;53.472;9.794;2024-01-25T03:06:53;36.40;;;4.25;;
15968;SDS011;8085;53.472;9.794;2024-01-25T03:09:20;35.70;;;3.78;;
15968;SDS011;8085;53.472;9.794;2024-01-25T03:11:48;31.90;;;3.83;;
15968;SDS011;8085;53.472;9.794;2024-01-25T03:14:17;29.60;;;3.15;;
15968;SDS011;8085;53.472;9.794;2024-01-25T03:16:43;33.45;;;4.07;;
15968;SDS011;8085;53.472;9.794;2024-01-25T03:19:10;29.25;;;3.40;;
15968;SDS011;8085;53.472;9.794;2024-01-25T03:21:37;32.45;;;3.80;;
15968;SDS011;8085;53.472;9.794;2024-01-25T03:24:05;32.10;;;4.13;;
15968;SDS011;8085;53.472;9.794;2024-01-25T03:26:32;37.70;;;3.58;;
15968;SDS011;8085;53.472;9.794;2024-01-25T03:28:59;26.00;;;2.53;;
15968;SDS011;8085;53.472;9.794;2024-01-25T03:31:27;41.45;;;3.75;;
15968;SDS011;8085;53.472;9.794;2024-01-25T03:33:54;28.95;;;3.65;;
15968;SDS011;8085;53.472;9.794;2024-01-25T03:36:20;25.77;;;3.13;;
15968;SDS011;8085;53.472;9.794;2024-01-25T03:38:47;31.90;;;2.95;;
15968;SDS011;8085;53.472;9.794;2024-01-25T03:41:14;29.85;;;2.88;;
15968;SDS011;8085;53.472;9.794;2024-01-25T03:43:41;29.77;;;4.05;;
15968;SDS011;8085;53.472;9.794;2024-01-25T03:46:09;28.67;;;2.75;;
15968;SDS011;8085;53.472;9.794;2024-01-25T03:48:38;27.88;;;3.35;;
15968;SDS011;8085;53.472;9.794;2024-01-25T03:51:05;33.13;;;3.45;;
15968;SDS011;8085;53.472;9.794;2024-01-25T03:53:32;20.90;;;2.80;;
15968;SDS011;8085;53.472;9.794;2024-01-25T03:55:58;24.00;;;2.80;;
15968;SDS011;8085;53.472;9.794;2024-01-25T03:58:25;27.25;;;2.83;;
15968;SDS011;8085;53.472;9.794;2024-01-25T04:00:52;31.58;;;3.47;;
15968;SDS011;8085;53.472;9.794;2024-01-25T04:03:19;28.42;;;2.83;;
15968;SDS011;8085;53.472;9.794;2024-01-25T04:05:47;21.58;;;2.78;;
15968;SDS011;8085;53.472;9.794;2024-01-25T04:08:14;33.72;;;3.40;;
15968;SDS011;8085;53.472;9.794;2024-01-25T04:10:41;23.42;;;2.85;;
15968;SDS011;8085;53.472;9.794;2024-01-25T04:13:08;23.70;;;2.90;;
15968;SDS011;8085;53.472;9.794;2024-01-25T04:15:35;28.45;;;2.95;;
15968;SDS011;8085;53.472;9.794;2024-01-25T04:18:02;28.00;;;4.18;;
15968;SDS011;8085;53.472;9.794;2024-01-25T04:20:29;23.52;;;3.53;;
15968;SDS011;8085;53.472;9.794;2024-01-25T04:22:58;28.15;;;3.72;;
15968;SDS011;8085;53.472;9.794;2024-01-25T04:25:24;27.98;;;3.00;;
15968;SDS011;8085;53.472;9.794;2024-01-25T04:27:51;29.40;;;3.45;;
15968;SDS011;8085;53.472;9.794;2024-01-25T04:30:18;30.05;;;3.33;;
15968;SDS011;8085;53.472;9.794;2024-01-25T04:32:45;30.42;;;3.70;;
15968;SDS011;8085;53.472;9.794;2024-01-25T04:35:12;34.58;;;4.15;;
15968;SDS011;8085;53.472;9.794;2024-01-25T04:37:39;26.55;;;2.78;;
15968;SDS011;8085;53.472;9.794;2024-01-25T04:40:08;26.05;;;3.28;;
15968;SDS011;8085;53.472;9.794;2024-01-25T04:42:35;28.98;;;3.55;;
15968;SDS011;8085;53.472;9.794;2024-01-25T04:45:03;29.25;;;2.95;;
15968;SDS011;8085;53.472;9.794;2024-01-25T04:47:31;32.47;;;3.15;;
15968;SDS011;8085;53.472;9.794;2024-01-25T04:49:58;31.13;;;3.15;;
15968;SDS011;8085;53.472;9.794;2024-01-25T04:52:25;24.52;;;2.90;;
15968;SDS011;8085;53.472;9.794;2024-01-25T04:54:52;23.02;;;2.80;;
15968;SDS011;8085;53.472;9.794;2024-01-25T04:57:20;31.02;;;3.50;;
15968;SDS011;8085;53.472;9.794;2024-01-25T04:59:47;32.35;;;4.18;;
15968;SDS011;8085;53.472;9.794;2024-01-25T05:02:14;27.80;;;3.30;;
15968;SDS011;8085;53.472;9.794;2024-01-25T05:04:41;26.58;;;2.55;;
15968;SDS011;8085;53.472;9.794;2024-01-25T05:07:07;27.63;;;2.90;;
15968;SDS011;8085;53.472;9.794;2024-01-25T05:09:34;25.38;;;3.42;;
15968;SDS011;8085;53.472;9.794;2024-01-25T05:12:00;36.25;;;3.83;;
15968;SDS011;8085;53.472;9.794;2024-01-25T05:14:28;32.42;;;3.42;;
15968;SDS011;8085;53.472;9.794;2024-01-25T05:16:55;24.63;;;3.03;;
15968;SDS011;8085;53.472;9.794;2024-01-25T05:19:22;27.63;;;2.83;;
15968;SDS011;8085;53.472;9.794;2024-01-25T05:21:50;25.58;;;2.83;;
15968;SDS011;8085;53.472;9.794;2024-01-25T05:24:17;32.20;;;3.45;;
15968;SDS011;8085;53.472;9.794;2024-01-25T05:26:44;25.55;;;2.95;;
15968;SDS011;8085;53.472;9.794;2024-01-25T05:29:11;25.08;;;3.00;;
15968;SDS011;8085;53.472;9.794;2024-01-25T05:31:39;34.72;;;3.88;;
15968;SDS011;8085;53.472;9.794;2024-01-25T05:34:06;32.08;;;3.50;;
15968;SDS011;8085;53.472;9.794;2024-01-25T05:36:33;29.08;;;3.88;;
15968;SDS011;8085;53.472;9.794;2024-01-25T05:39:00;36.00;;;3.28;;
15968;SDS011;8085;53.472;9.794;2024-01-25T05:41:31;28.13;;;3.10;;
15968;SDS011;8085;53.472;9.794;2024-01-25T05:43:58;26.77;;;3.40;;
15968;SDS011;8085;53.472;9.794;2024-01-25T05:46:25;24.65;;;2.78;;
15968;SDS011;8085;53.472;9.794;2024-01-25T05:48:53;22.55;;;2.55;;
15968;SDS011;8085;53.472;9.794;2024-01-25T05:51:20;33.75;;;3.08;;
15968;SDS011;8085;53.472;9.794;2024-01-25T05:53:47;26.88;;;3.40;;
15968;SDS011;8085;53.472;9.794;2024-01-25T05:56:14;26.38;;;2.47;;
15968;SDS011;8085;53.472;9.794;2024-01-25T05:58:41;26.52;;;3.00;;
15968;SDS011;8085;53.472;9.794;2024-01-25T06:01:08;29.52;;;2.63;;
15968;SDS011;8085;53.472;9.794;2024-01-25T06:03:35;32.67;;;4.05;;
15968;SDS011;8085;53.472;9.794;2024-01-25T06:06:03;25.33;;;2.85;;
15968;SDS011;8085;53.472;9.794;2024-01-25T06:08:32;22.42;;;3.25;;
15968;SDS011;8085;53.472;9.794;2024-01-25T06:10:59;31.45;;;3.65;;
15968;SDS011;8085;53.472;9.794;2024-01-25T06:13:26;29.10;;;4.18;;
15968;SDS011;8085;53.472;9.794;2024-01-25T06:15:53;34.88;;;3.55;;
15968;SDS011;8085;53.472;9.794;2024-01-25T06:18:20;23.75;;;2.70;;
15968;SDS011;8085;53.472;9.794;2024-01-25T06:20:47;28.08;;;2.55;;
15968;SDS011;8085;53.472;9.794;2024-01-25T06:23:16;34.55;;;2.83;;
15968;SDS011;8085;53.472;9.794;2024-01-25T06:25:43;26.90;;;2.85;;
15968;SDS011;8085;53.472;9.794;2024-01-25T06:28:10;34.47;;;3.47;;
15968;SDS011;8085;53.472;9.794;2024-01-25T06:30:37;21.73;;;2.53;;
15968;SDS011;8085;53.472;9.794;2024-01-25T06:33:04;36.47;;;3.83;;
15968;SDS011;8085;53.472;9.794;2024-01-25T06:35:31;22.83;;;2.80;;
15968;SDS011;8085;53.472;9.794;2024-01-25T06:37:58;26.67;;;3.35;;
15968;SDS011;8085;53.472;9.794;2024-01-25T06:40:26;27.88;;;2.92;;
15968;SDS011;8085;53.472;9.794;2024-01-25T06:42:53;26.80;;;3.38;;
15968;SDS011;8085;53.472;9.794;2024-01-25T06:45:19;23.75;;;2.53;;
15968;SDS011;8085;53.472;9.794;2024-01-25T06:47:46;35.20;;;2.63;;
15968;SDS011;8085;53.472;9.794;2024-01-25T06:50:13;30.20;;;3.42;;
15968;SDS011;8085;53.472;9.794;2024-01-25T06:52:40;32.13;;;2.88;;
15968;SDS011;8085;53.472;9.794;2024-01-25T06:55:07;29.40;;;2.80;;
15968;SDS011;8085;53.472;9.794;2024-01-25T06:57:36;23.85;;;2.42;;
15968;SDS011;8085;53.472;9.794;2024-01-25T07:00:05;30.83;;;3.15;;
15968;SDS011;8085;53.472;9.794;2024-01-25T07:02:33;27.45;;;3.42;;
15968;SDS011;8085;53.472;9.794;2024-01-25T07:05:01;37.78;;;3.83;;
15968;SDS011;8085;53.472;9.794;2024-01-25T07:07:28;39.20;;;3.63;;
15968;SDS011;8085;53.472;9.794;2024-01-25T07:09:57;25.02;;;2.67;;
15968;SDS011;8085;53.472;9.794;2024-01-25T07:12:25;26.45;;;3.20;;
15968;SDS011;8085;53.472;9.794;2024-01-25T07:14:53;28.50;;;3.53;;
15968;SDS011;8085;53.472;9.794;2024-01-25T07:17:20;27.38;;;3.22;;
15968;SDS011;8085;53.472;9.794;2024-01-25T07:19:54;30.73;;;2.83;;
15968;SDS011;8085;53.472;9.794;2024-01-25T07:22:50;28.17;;;3.00;;
15968;SDS011;8085;53.472;9.794;2024-01-25T07:28:54;27.33;;;3.30;;
15968;SDS011;8085;53.472;9.794;2024-01-25T07:35:14;28.98;;;3.55;;
15968;SDS011;8085;53.472;9.794;2024-01-25T07:38:28;28.08;;;3.40;;
15968;SDS011;8085;53.472;9.794;2024-01-25T07:41:58;22.30;;;2.70;;
15968;SDS011;8085;53.472;9.794;2024-01-25T07:45:01;23.83;;;3.00;;
15968;SDS011;8085;53.472;9.794;2024-01-25T07:58:45;22.30;;;2.85;;
15968;SDS011;8085;53.472;9.794;2024-01-25T08:01:25;24.17;;;2.85;;
15968;SDS011;8085;53.472;9.794;2024-01-25T08:03:52;27.35;;;2.88;;
15968;SDS011;8085;53.472;9.794;2024-01-25T08:06:19;27.83;;;2.72;;
15968;SDS011;8085;53.472;9.794;2024-01-25T08:08:46;20.98;;;2.90;;
15968;SDS011;8085;53.472;9.794;2024-01-25T08:11:14;22.60;;;3.03;;
15968;SDS011;8085;53.472;9.794;2024-01-25T08:16:15;26.35;;;3.22;;
15968;SDS011;8085;53.472;9.794;2024-01-25T08:18:44;22.10;;;2.47;;
15968;SDS011;8085;53.472;9.794;2024-01-25T08:21:11;29.27;;;2.92;;
15968;SDS011;8085;53.472;9.794;2024-01-25T08:23:39;24.10;;;2.05;;
15968;SDS011;8085;53.472;9.794;2024-01-25T08:26:06;19.83;;;2.47;;
15968;SDS011;8085;53.472;9.794;2024-01-25T08:28:36;25.65;;;2.35;;
15968;SDS011;8085;53.472;9.794;2024-01-25T08:31:04;19.23;;;2.45;;
15968;SDS011;8085;53.472;9.794;2024-01-25T08:33:31;25.35;;;3.65;;
15968;SDS011;8085;53.472;9.794;2024-01-25T08:35:58;24.15;;;2.70;;
15968;SDS011;8085;53.472;9.794;2024-01-25T08:38:25;35.15;;;3.60;;
15968;SDS011;8085;53.472;9.794;2024-01-25T08:40:52;23.17;;;2.60;;
15968;SDS011;8085;53.472;9.794;2024-01-25T08:43:19;28.75;;;2.55;;
15968;SDS011;8085;53.472;9.794;2024-01-25T08:45:47;25.77;;;2.80;;
15968;SDS011;8085;53.472;9.794;2024-01-25T08:48:14;15.02;;;2.33;;
15968;SDS011;8085;53.472;9.794;2024-01-25T08:50:41;24.83;;;2.40;;
15968;SDS011;8085;53.472;9.794;2024-01-25T08:53:08;25.23;;;2.78;;
15968;SDS011;8085;53.472;9.794;2024-01-25T08:55:36;27.98;;;2.42;;
15968;SDS011;8085;53.472;9.794;2024-01-25T08:58:03;22.20;;;2.95;;
15968;SDS011;8085;53.472;9.794;2024-01-25T09:00:30;17.92;;;2.20;;
15968;SDS011;8085;53.472;9.794;2024-01-25T09:02:58;25.83;;;2.60;;
15968;SDS011;8085;53.472;9.794;2024-01-25T09:05:25;28.85;;;2.55;;
15968;SDS011;8085;53.472;9.794;2024-01-25T09:07:53;17.48;;;3.47;;
15968;SDS011;8085;53.472;9.794;2024-01-25T09:10:20;18.70;;;2.28;;
15968;SDS011;8085;53.472;9.794;2024-01-25T09:12:47;29.98;;;2.45;;
15968;SDS011;8085;53.472;9.794;2024-01-25T09:15:14;21.35;;;2.28;;
15968;SDS011;8085;53.472;9.794;2024-01-25T09:17:43;23.20;;;3.45;;
15968;SDS011;8085;53.472;9.794;2024-01-25T09:20:11;27.50;;;3.10;;
15968;SDS011;8085;53.472;9.794;2024-01-25T09:22:38;21.58;;;2.60;;
15968;SDS011;8085;53.472;9.794;2024-01-25T09:25:06;23.15;;;2.88;;
15968;SDS011;8085;53.472;9.794;2024-01-25T09:27:33;27.17;;;2.45;;
15968;SDS011;8085;53.472;9.794;2024-01-25T09:30:00;27.02;;;3.90;;
15968;SDS011;8085;53.472;9.794;2024-01-25T09:32:27;29.77;;;3.10;;
15968;SDS011;8085;53.472;9.794;2024-01-25T09:34:54;35.28;;;3.05;;
15968;SDS011;8085;53.472;9.794;2024-01-25T09:37:22;23.60;;;2.80;;
15968;SDS011;8085;53.472;9.794;2024-01-25T09:39:49;25.88;;;3.22;;
15968;SDS011;8085;53.472;9.794;2024-01-25T09:42:16;18.60;;;2.38;;
15968;SDS011;8085;53.472;9.794;2024-01-25T09:44:44;22.27;;;3.38;;
15968;SDS011;8085;53.472;9.794;2024-01-25T09:47:11;28.67;;;3.22;;
15968;SDS011;8085;53.472;9.794;2024-01-25T09:49:38;26.88;;;2.80;;
15968;SDS011;8085;53.472;9.794;2024-01-25T09:52:07;28.85;;;3.10;;
15968;SDS011;8085;53.472;9.794;2024-01-25T09:54:40;25.55;;;3.00;;
15968;SDS011;8085;53.472;9.794;2024-01-25T09:57:08;21.10;;;2.60;;
15968;SDS011;8085;53.472;9.794;2024-01-25T09:59:45;23.73;;;3.03;;
15968;SDS011;8085;53.472;9.794;2024-01-25T10:02:14;27.20;;;2.45;;
15968;SDS011;8085;53.472;9.794;2024-01-25T10:04:41;28.65;;;2.72;;
15968;SDS011;8085;53.472;9.794;2024-01-25T10:07:08;22.13;;;2.72;;
15968;SDS011;8085;53.472;9.794;2024-01-25T10:09:38;35.70;;;3.20;;
15968;SDS011;8085;53.472;9.794;2024-01-25T10:12:07;27.27;;;2.67;;
15968;SDS011;8085;53.472;9.794;2024-01-25T10:14:34;21.08;;;2.00;;
15968;SDS011;8085;53.472;9.794;2024-01-25T10:17:01;24.45;;;2.97;;
15968;SDS011;8085;53.472;9.794;2024-01-25T10:19:29;20.05;;;2.22;;
15968;SDS011;8085;53.472;9.794;2024-01-25T10:21:56;23.92;;;2.58;;
15968;SDS011;8085;53.472;9.794;2024-01-25T10:24:23;29.42;;;2.97;;
15968;SDS011;8085;53.472;9.794;2024-01-25T10:26:53;23.98;;;2.72;;
15968;SDS011;8085;53.472;9.794;2024-01-25T10:29:20;22.08;;;2.58;;
15968;SDS011;8085;53.472;9.794;2024-01-25T10:31:47;34.17;;;3.53;;
15968;SDS011;8085;53.472;9.794;2024-01-25T10:34:14;21.35;;;2.70;;
15968;SDS011;8085;53.472;9.794;2024-01-25T10:36:43;25.88;;;2.80;;
15968;SDS011;8085;53.472;9.794;2024-01-25T10:39:13;22.92;;;3.17;;
15968;SDS011;8085;53.472;9.794;2024-01-25T10:41:41;19.00;;;2.13;;
15968;SDS011;8085;53.472;9.794;2024-01-25T10:44:11;26.63;;;2.78;;
15968;SDS011;8085;53.472;9.794;2024-01-25T10:46:38;22.40;;;2.85;;
15968;SDS011;8085;53.472;9.794;2024-01-25T10:49:07;31.80;;;3.28;;
15968;SDS011;8085;53.472;9.794;2024-01-25T10:51:34;25.52;;;3.15;;
15968;SDS011;8085;53.472;9.794;2024-01-25T10:54:01;16.17;;;2.10;;
15968;SDS011;8085;53.472;9.794;2024-01-25T10:56:31;23.20;;;2.70;;
15968;SDS011;8085;53.472;9.794;2024-01-25T10:58:59;19.25;;;2.55;;
15968;SDS011;8085;53.472;9.794;2024-01-25T11:01:28;18.25;;;2.70;;
15968;SDS011;8085;53.472;9.794;2024-01-25T11:03:55;16.00;;;2.00;;
15968;SDS011;8085;53.472;9.794;2024-01-25T11:06:22;26.48;;;3.60;;
15968;SDS011;8085;53.472;9.794;2024-01-25T11:08:49;20.13;;;3.00;;
15968;SDS011;8085;53.472;9.794;2024-01-25T11:11:16;23.20;;;2.80;;
15968;SDS011;8085;53.472;9.794;2024-01-25T11:13:45;19.48;;;3.10;;
15968;SDS011;8085;53.472;9.794;2024-01-25T11:16:13;21.05;;;2.33;;
15968;SDS011;8085;53.472;9.794;2024-01-25T11:18:49;17.38;;;2.35;;
15968;SDS011;8085;53.472;9.794;2024-01-25T11:21:25;17.95;;;2.30;;
15968;SDS011;8085;53.472;9.794;2024-01-25T11:23:59;24.02;;;2.60;;
15968;SDS011;8085;53.472;9.794;2024-01-25T11:26:27;23.23;;;2.35;;
15968;SDS011;8085;53.472;9.794;2024-01-25T11:28:55;20.65;;;2.28;;
15968;SDS011;8085;53.472;9.794;2024-01-25T11:31:25;28.42;;;2.90;;
15968;SDS011;8085;53.472;9.794;2024-01-25T11:33:56;21.42;;;2.50;;
15968;SDS011;8085;53.472;9.794;2024-01-25T11:36:24;21.35;;;2.13;;
15968;SDS011;8085;53.472;9.794;2024-01-25T11:38:51;19.52;;;2.22;;
15968;SDS011;8085;53.472;9.794;2024-01-25T11:41:18;21.92;;;2.88;;
15968;SDS011;8085;53.472;9.794;2024-01-25T11:43:45;18.30;;;2.22;;
15968;SDS011;8085;53.472;9.794;2024-01-25T11:46:14;21.40;;;3.15;;
15968;SDS011;8085;53.472;9.794;2024-01-25T11:48:41;19.70;;;2.50;;
15968;SDS011;8085;53.472;9.794;2024-01-25T11:51:10;23.23;;;3.05;;
15968;SDS011;8085;53.472;9.794;2024-01-25T11:53:37;20.13;;;2.45;;
15968;SDS011;8085;53.472;9.794;2024-01-25T11:56:04;20.38;;;2.55;;
15968;SDS011;8085;53.472;9.794;2024-01-25T11:58:35;24.85;;;2.47;;
15968;SDS011;8085;53.472;9.794;2024-01-25T12:01:03;19.45;;;2.80;;
15968;SDS011;8085;53.472;9.794;2024-01-25T12:03:33;22.92;;;2.70;;
15968;SDS011;8085;53.472;9.794;2024-01-25T12:06:02;17.70;;;2.47;;
15968;SDS011;8085;53.472;9.794;2024-01-25T12:08:31;19.60;;;2.22;;
15968;SDS011;8085;53.472;9.794;2024-01-25T12:11:02;23.48;;;3.22;;
15968;SDS011;8085;53.472;9.794;2024-01-25T12:13:31;23.92;;;2.10;;
15968;SDS011;8085;53.472;9.794;2024-01-25T12:16:00;21.60;;;2.83;;
15968;SDS011;8085;53.472;9.794;2024-01-25T12:18:28;19.35;;;2.50;;
15968;SDS011;8085;53.472;9.794;2024-01-25T12:20:57;20.60;;;2.17;;
15968;SDS011;8085;53.472;9.794;2024-01-25T12:23:40;23.70;;;2.55;;
15968;SDS011;8085;53.472;9.794;2024-01-25T12:26:09;18.25;;;3.05;;
15968;SDS011;8085;53.472;9.794;2024-01-25T12:28:40;19.15;;;2.20;;
15968;SDS011;8085;53.472;9.794;2024-01-25T12:31:16;17.55;;;1.95;;
15968;SDS011;8085;53.472;9.794;2024-01-25T12:33:51;16.98;;;1.80;;
15968;SDS011;8085;53.472;9.794;2024-01-25T12:36:31;18.95;;;2.30;;
15968;SDS011;8085;53.472;9.794;2024-01-25T12:42:00;19.05;;;2.50;;
15968;SDS011;8085;53.472;9.794;2024-01-25T12:44:45;26.95;;;2.88;;
15968;SDS011;8085;53.472;9.794;2024-01-25T12:47:13;17.38;;;2.35;;
15968;SDS011;8085;53.472;9.794;2024-01-25T12:49:40;18.98;;;2.03;;
15968;SDS011;8085;53.472;9.794;2024-01-25T12:52:08;22.83;;;2.20;;
15968;SDS011;8085;53.472;9.794;2024-01-25T12:54:39;18.33;;;2.33;;
15968;SDS011;8085;53.472;9.794;2024-01-25T12:57:07;20.35;;;2.47;;
15968;SDS011;8085;53.472;9.794;2024-01-25T12:59:35;19.27;;;2.58;;
15968;SDS011;8085;53.472;9.794;2024-01-25T13:02:03;17.15;;;2.10;;
15968;SDS011;8085;53.472;9.794;2024-01-25T13:04:31;13.35;;;1.80;;
15968;SDS011;8085;53.472;9.794;2024-01-25T13:06:58;15.10;;;2.17;;
15968;SDS011;8085;53.472;9.794;2024-01-25T13:09:28;16.33;;;2.05;;
15968;SDS011;8085;53.472;9.794;2024-01-25T13:12:00;21.80;;;2.45;;
15968;SDS011;8085;53.472;9.794;2024-01-25T13:14:28;12.32;;;1.58;;
15968;SDS011;8085;53.472;9.794;2024-01-25T13:17:06;11.73;;;2.08;;
15968;SDS011;8085;53.472;9.794;2024-01-25T13:19:33;17.67;;;2.30;;
15968;SDS011;8085;53.472;9.794;2024-01-25T13:22:00;14.38;;;1.95;;
15968;SDS011;8085;53.472;9.794;2024-01-25T13:24:27;19.05;;;1.95;;
15968;SDS011;8085;53.472;9.794;2024-01-25T13:26:54;21.70;;;2.58;;
15968;SDS011;8085;53.472;9.794;2024-01-25T13:29:24;14.63;;;2.00;;
15968;SDS011;8085;53.472;9.794;2024-01-25T13:31:51;17.58;;;2.05;;
15968;SDS011;8085;53.472;9.794;2024-01-25T13:34:18;11.57;;;2.33;;
15968;SDS011;8085;53.472;9.794;2024-01-25T13:36:45;16.27;;;2.22;;
15968;SDS011;8085;53.472;9.794;2024-01-25T13:54:37;13.75;;;1.95;;
15968;SDS011;8085;53.472;9.794;2024-01-25T13:57:04;20.60;;;2.28;;
15968;SDS011;8085;53.472;9.794;2024-01-25T13:59:31;9.55;;;1.60;;
15968;SDS011;8085;53.472;9.794;2024-01-25T14:01:58;15.32;;;2.08;;
15968;SDS011;8085;53.472;9.794;2024-01-25T14:04:24;16.02;;;2.17;;
15968;SDS011;8085;53.472;9.794;2024-01-25T14:06:51;17.50;;;2.60;;
15968;SDS011;8085;53.472;9.794;2024-01-25T14:09:18;17.90;;;1.80;;
15968;SDS011;8085;53.472;9.794;2024-01-25T14:11:46;10.18;;;1.58;;
15968;SDS011;8085;53.472;9.794;2024-01-25T14:14:13;10.68;;;1.67;;
15968;SDS011;8085;53.472;9.794;2024-01-25T14:16:40;16.38;;;1.90;;
15968;SDS011;8085;53.472;9.794;2024-01-25T14:19:07;14.13;;;1.65;;
15968;SDS011;8085;53.472;9.794;2024-01-25T14:21:34;14.95;;;2.00;;
15968;SDS011;8085;53.472;9.794;2024-01-25T14:24:01;13.35;;;1.90;;
15968;SDS011;8085;53.472;9.794;2024-01-25T14:26:28;15.13;;;2.00;;
15968;SDS011;8085;53.472;9.794;2024-01-25T14:28:56;18.17;;;2.15;;
15968;SDS011;8085;53.472;9.794;2024-01-25T14:31:23;16.00;;;2.30;;
15968;SDS011;8085;53.472;9.794;2024-01-25T14:33:50;19.73;;;3.08;;
15968;SDS011;8085;53.472;9.794;2024-01-25T14:36:16;19.55;;;2.47;;
15968;SDS011;8085;53.472;9.794;2024-01-25T14:38:43;14.60;;;1.80;;
15968;SDS011;8085;53.472;9.794;2024-01-25T14:41:10;14.30;;;2.00;;
15968;SDS011;8085;53.472;9.794;2024-01-25T14:43:37;17.98;;;2.20;;
15968;SDS011;8085;53.472;9.794;2024-01-25T14:46:06;20.02;;;2.22;;
15968;SDS011;8085;53.472;9.794;2024-01-25T14:48:33;16.05;;;2.22;;
15968;SDS011;8085;53.472;9.794;2024-01-25T14:51:00;15.27;;;2.05;;
15968;SDS011;8085;53.472;9.794;2024-01-25T14:53:27;14.05;;;1.83;;
15968;SDS011;8085;53.472;9.794;2024-01-25T14:55:54;11.98;;;1.90;;
15968;SDS011;8085;53.472;9.794;2024-01-25T14:58:21;12.07;;;1.83;;
15968;SDS011;8085;53.472;9.794;2024-01-25T15:00:49;13.43;;;2.25;;
15968;SDS011;8085;53.472;9.794;2024-01-25T15:03:18;12.15;;;1.70;;
15968;SDS011;8085;53.472;9.794;2024-01-25T15:08:14;12.10;;;1.63;;
15968;SDS011;8085;53.472;9.794;2024-01-25T15:10:41;12.13;;;1.55;;
15968;SDS011;8085;53.472;9.794;2024-01-25T15:13:11;17.80;;;2.20;;
15968;SDS011;8085;53.472;9.794;2024-01-25T15:15:38;14.07;;;1.58;;
15968;SDS011;8085;53.472;9.794;2024-01-25T15:18:07;13.88;;;1.92;;
15968;SDS011;8085;53.472;9.794;2024-01-25T15:20:35;13.20;;;2.30;;
15968;SDS011;8085;53.472;9.794;2024-01-25T15:23:02;16.23;;;1.67;;
15968;SDS011;8085;53.472;9.794;2024-01-25T15:25:29;11.50;;;2.00;;
15968;SDS011;8085;53.472;9.794;2024-01-25T15:27:56;17.52;;;2.60;;
15968;SDS011;8085;53.472;9.794;2024-01-25T15:30:23;14.10;;;1.90;;
15968;SDS011;8085;53.472;9.794;2024-01-25T15:32:50;10.88;;;1.75;;
15968;SDS011;8085;53.472;9.794;2024-01-25T15:35:17;12.45;;;1.58;;
15968;SDS011;8085;53.472;9.794;2024-01-25T15:37:45;15.38;;;1.58;;
15968;SDS011;8085;53.472;9.794;2024-01-25T15:40:12;11.52;;;1.40;;
15968;SDS011;8085;53.472;9.794;2024-01-25T15:42:41;7.78;;;1.80;;
15968;SDS011;8085;53.472;9.794;2024-01-25T15:45:09;9.23;;;1.60;;
15968;SDS011;8085;53.472;9.794;2024-01-25T15:47:36;14.15;;;1.60;;
15968;SDS011;8085;53.472;9.794;2024-01-25T15:50:03;11.40;;;1.60;;